sensor_id;sensor_type;location;lat;lon;timestamp;pressure;altitude;pressure_sealevel;temperature;humidity
51261;BME280;61705;46.228;24.812;2023-07-20T00:00:36;96961.78;;;19.11;100.00
51261;BME280;61705;46.228;24.812;2023-07-20T00:03:20;96962.63;;;19.21;100.00
51261;BME280;61705;46.228;24.812;2023-07-20T00:05:51;96961.50;;;19.14;100.00
51261;BME280;61705;46.228;24.812;2023-07-20T00:08:18;96959.09;;;19.21;100.00
51261;BME280;61705;46.228;24.812;2023-07-20T00:10:45;96956.72;;;18.98;100.00
51261;BME280;61705;46.228;24.812;2023-07-20T00:13:11;96941.94;;;18.94;100.00
51261;BME280;61705;46.228;24.812;2023-07-20T00:15:38;96934.03;;;19.02;100.00
51261;BME280;61705;46.228;24.812;2023-07-20T00:18:05;96932.75;;;19.06;100.00
51261;BME280;61705;46.228;24.812;2023-07-20T00:20:32;96936.28;;;19.16;100.00
51261;BME280;61705;46.228;24.812;2023-07-20T00:22:58;96932.47;;;19.00;100.00
51261;BME280;61705;46.228;24.812;2023-07-20T00:25:25;96931.22;;;18.94;100.00
51261;BME280;61705;46.228;24.812;2023-07-20T00:27:52;96926.28;;;19.09;100.00
51261;BME280;61705;46.228;24.812;2023-07-20T00:30:19;96919.34;;;19.16;100.00
51261;BME280;61705;46.228;24.812;2023-07-20T00:32:45;96916.84;;;19.14;100.00
51261;BME280;61705;46.228;24.812;2023-07-20T00:35:12;96915.13;;;19.13;100.00
51261;BME280;61705;46.228;24.812;2023-07-20T00:37:40;96913.84;;;19.17;100.00
51261;BME280;61705;46.228;24.812;2023-07-20T00:40:07;96906.13;;;19.14;100.00
51261;BME280;61705;46.228;24.812;2023-07-20T00:42:33;96893.00;;;19.11;100.00
51261;BME280;61705;46.228;24.812;2023-07-20T00:45:00;96886.09;;;18.99;100.00
51261;BME280;61705;46.228;24.812;2023-07-20T00:47:27;96887.22;;;18.97;100.00
51261;BME280;61705;46.228;24.812;2023-07-20T00:49:54;96878.63;;;19.03;100.00
51261;BME280;61705;46.228;24.812;2023-07-20T00:52:21;96883.13;;;19.02;100.00
51261;BME280;61705;46.228;24.812;2023-07-20T00:54:49;96878.91;;;19.09;100.00
51261;BME280;61705;46.228;24.812;2023-07-20T00:57:16;96874.13;;;19.03;100.00
51261;BME280;61705;46.228;24.812;2023-07-20T00:59:44;96873.53;;;19.09;100.00
51261;BME280;61705;46.228;24.812;2023-07-20T01:02:10;96876.38;;;19.08;100.00
51261;BME280;61705;46.228;24.812;2023-07-20T01:04:37;96882.59;;;18.99;100.00
51261;BME280;61705;46.228;24.812;2023-07-20T01:07:14;96871.03;;;18.88;100.00
51261;BME280;61705;46.228;24.812;2023-07-20T01:12:43;96866.94;;;18.94;100.00
51261;BME280;61705;46.228;24.812;2023-07-20T01:15:09;96867.91;;;18.83;100.00
51261;BME280;61705;46.228;24.812;2023-07-20T01:17:36;96860.03;;;18.72;100.00
51261;BME280;61705;46.228;24.812;2023-07-20T01:20:03;96862.84;;;18.80;100.00
51261;BME280;61705;46.228;24.812;2023-07-20T01:25:21;96862.16;;;18.78;100.00
51261;BME280;61705;46.228;24.812;2023-07-20T01:30:37;96862.84;;;18.80;100.00
51261;BME280;61705;46.228;24.812;2023-07-20T01:33:07;96850.72;;;18.86;100.00
51261;BME280;61705;46.228;24.812;2023-07-20T01:35:34;96863.00;;;18.88;100.00
51261;BME280;61705;46.228;24.812;2023-07-20T01:38:03;96865.69;;;18.88;100.00
51261;BME280;61705;46.228;24.812;2023-07-20T01:40:30;96859.59;;;18.96;100.00
51261;BME280;61705;46.228;24.812;2023-07-20T01:42:57;96866.63;;;18.97;100.00
51261;BME280;61705;46.228;24.812;2023-07-20T01:45:24;96869.19;;;18.89;100.00
51261;BME280;61705;46.228;24.812;2023-07-20T01:47:51;96872.44;;;18.83;100.00
51261;BME280;61705;46.228;24.812;2023-07-20T01:50:17;96870.88;;;18.80;100.00
51261;BME280;61705;46.228;24.812;2023-07-20T01:52:44;96870.31;;;18.86;100.00
51261;BME280;61705;46.228;24.812;2023-07-20T01:55:11;96876.09;;;18.82;100.00
51261;BME280;61705;46.228;24.812;2023-07-20T01:57:37;96874.38;;;18.90;100.00
51261;BME280;61705;46.228;24.812;2023-07-20T02:00:04;96873.00;;;18.86;100.00
51261;BME280;61705;46.228;24.812;2023-07-20T02:02:31;96878.78;;;18.91;100.00
51261;BME280;61705;46.228;24.812;2023-07-20T02:04:57;96886.66;;;18.93;100.00
51261;BME280;61705;46.228;24.812;2023-07-20T02:07:24;96883.00;;;18.84;100.00
51261;BME280;61705;46.228;24.812;2023-07-20T02:09:51;96872.88;;;18.88;100.00
51261;BME280;61705;46.228;24.812;2023-07-20T02:12:17;96867.22;;;18.81;100.00
51261;BME280;61705;46.228;24.812;2023-07-20T02:14:44;96874.13;;;18.74;100.00
51261;BME280;61705;46.228;24.812;2023-07-20T02:17:10;96872.28;;;18.75;100.00
51261;BME280;61705;46.228;24.812;2023-07-20T02:19:37;96869.06;;;18.81;100.00
51261;BME280;61705;46.228;24.812;2023-07-20T02:22:04;96870.47;;;18.85;100.00
51261;BME280;61705;46.228;24.812;2023-07-20T02:24:34;96871.47;;;18.84;100.00
51261;BME280;61705;46.228;24.812;2023-07-20T02:27:01;96880.72;;;18.80;100.00
51261;BME280;61705;46.228;24.812;2023-07-20T02:29:27;96881.00;;;18.67;100.00
51261;BME280;61705;46.228;24.812;2023-07-20T02:31:54;96877.19;;;18.69;100.00
51261;BME280;61705;46.228;24.812;2023-07-20T02:34:21;96887.75;;;18.71;100.00
51261;BME280;61705;46.228;24.812;2023-07-20T02:36:47;96881.84;;;18.67;100.00
51261;BME280;61705;46.228;24.812;2023-07-20T02:39:14;96880.16;;;18.76;100.00
51261;BME280;61705;46.228;24.812;2023-07-20T02:41:41;96878.06;;;18.80;100.00
51261;BME280;61705;46.228;24.812;2023-07-20T02:44:08;96878.91;;;18.80;100.00
51261;BME280;61705;46.228;24.812;2023-07-20T02:46:34;96875.66;;;18.77;100.00
51261;BME280;61705;46.228;24.812;2023-07-20T02:49:01;96875.25;;;18.81;100.00
51261;BME280;61705;46.228;24.812;2023-07-20T02:51:28;96871.47;;;18.84;100.00
51261;BME280;61705;46.228;24.812;2023-07-20T02:53:54;96873.97;;;18.76;100.00
51261;BME280;61705;46.228;24.812;2023-07-20T02:56:21;96877.78;;;18.73;100.00
51261;BME280;61705;46.228;24.812;2023-07-20T02:58:49;96867.06;;;18.73;100.00
51261;BME280;61705;46.228;24.812;2023-07-20T03:01:16;96868.91;;;18.73;100.00
51261;BME280;61705;46.228;24.812;2023-07-20T03:03:42;96878.31;;;18.67;100.00
51261;BME280;61705;46.228;24.812;2023-07-20T03:06:13;96878.03;;;18.70;100.00
51261;BME280;61705;46.228;24.812;2023-07-20T03:08:41;96872.13;;;18.76;100.00
51261;BME280;61705;46.228;24.812;2023-07-20T03:11:14;96871.59;;;18.82;100.00
51261;BME280;61705;46.228;24.812;2023-07-20T03:13:44;96875.53;;;18.78;100.00
51261;BME280;61705;46.228;24.812;2023-07-20T03:16:13;96883.81;;;18.65;100.00
51261;BME280;61705;46.228;24.812;2023-07-20T03:18:41;96889.47;;;18.72;100.00
51261;BME280;61705;46.228;24.812;2023-07-20T03:21:09;96893.16;;;18.81;100.00
51261;BME280;61705;46.228;24.812;2023-07-20T03:23:39;96881.72;;;18.88;99.73
51261;BME280;61705;46.228;24.812;2023-07-20T03:26:06;96889.78;;;18.88;99.30
51261;BME280;61705;46.228;24.812;2023-07-20T03:28:36;96893.56;;;18.96;99.25
51261;BME280;61705;46.228;24.812;2023-07-20T03:31:04;96888.66;;;18.91;99.52
51261;BME280;61705;46.228;24.812;2023-07-20T03:33:31;96890.06;;;18.95;99.48
51261;BME280;61705;46.228;24.812;2023-07-20T03:35:58;96889.06;;;18.96;99.50
51261;BME280;61705;46.228;24.812;2023-07-20T03:38:25;96898.38;;;19.02;99.33
51261;BME280;61705;46.228;24.812;2023-07-20T03:40:52;96901.16;;;19.10;98.87
51261;BME280;61705;46.228;24.812;2023-07-20T03:43:19;96885.94;;;19.10;98.80
51261;BME280;61705;46.228;24.812;2023-07-20T03:45:47;96890.47;;;19.10;99.08
51261;BME280;61705;46.228;24.812;2023-07-20T03:48:18;96889.06;;;18.96;100.00
51261;BME280;61705;46.228;24.812;2023-07-20T03:50:45;96880.03;;;19.07;100.00
51261;BME280;61705;46.228;24.812;2023-07-20T03:53:13;96894.41;;;19.06;99.49
51261;BME280;61705;46.228;24.812;2023-07-20T03:55:49;96894.56;;;19.04;99.81
51261;BME280;61705;46.228;24.812;2023-07-20T03:58:17;96888.50;;;19.02;99.25
51261;BME280;61705;46.228;24.812;2023-07-20T04:00:45;96903.72;;;19.02;98.91
51261;BME280;61705;46.228;24.812;2023-07-20T04:03:12;96896.97;;;18.98;99.09
51261;BME280;61705;46.228;24.812;2023-07-20T04:05:39;96903.16;;;18.98;99.93
51261;BME280;61705;46.228;24.812;2023-07-20T04:08:05;96908.09;;;19.03;99.02
51261;BME280;61705;46.228;24.812;2023-07-20T04:10:32;96913.88;;;18.98;100.00
51261;BME280;61705;46.228;24.812;2023-07-20T04:12:59;96911.88;;;18.90;100.00
51261;BME280;61705;46.228;24.812;2023-07-20T04:15:26;96917.50;;;18.97;100.00
51261;BME280;61705;46.228;24.812;2023-07-20T04:17:53;96916.84;;;19.14;99.12
51261;BME280;61705;46.228;24.812;2023-07-20T04:20:20;96910.31;;;19.27;98.22
51261;BME280;61705;46.228;24.812;2023-07-20T04:22:47;96922.03;;;19.35;98.39
51261;BME280;61705;46.228;24.812;2023-07-20T04:25:14;96926.38;;;19.46;97.98
51261;BME280;61705;46.228;24.812;2023-07-20T04:27:41;96922.53;;;19.58;97.72
51261;BME280;61705;46.228;24.812;2023-07-20T04:30:10;96927.34;;;19.74;97.08
51261;BME280;61705;46.228;24.812;2023-07-20T04:32:38;96926.19;;;19.86;95.70
51261;BME280;61705;46.228;24.812;2023-07-20T04:35:05;96920.38;;;19.91;94.49
51261;BME280;61705;46.228;24.812;2023-07-20T04:37:32;96919.50;;;20.00;94.61
51261;BME280;61705;46.228;24.812;2023-07-20T04:39:59;96923.56;;;20.04;94.26
51261;BME280;61705;46.228;24.812;2023-07-20T04:42:25;96931.59;;;20.14;94.36
51261;BME280;61705;46.228;24.812;2023-07-20T04:44:52;96933.41;;;20.13;94.32
51261;BME280;61705;46.228;24.812;2023-07-20T04:47:18;96940.72;;;20.21;94.69
51261;BME280;61705;46.228;24.812;2023-07-20T04:49:45;96943.25;;;20.23;94.28
51261;BME280;61705;46.228;24.812;2023-07-20T04:52:11;96945.88;;;20.05;93.57
51261;BME280;61705;46.228;24.812;2023-07-20T04:54:38;96953.81;;;19.97;94.41
51261;BME280;61705;46.228;24.812;2023-07-20T04:57:09;96955.28;;;20.19;94.42
51261;BME280;61705;46.228;24.812;2023-07-20T04:59:37;96955.66;;;20.24;94.38
51261;BME280;61705;46.228;24.812;2023-07-20T05:02:03;96956.97;;;20.20;94.50
51261;BME280;61705;46.228;24.812;2023-07-20T05:04:30;96958.44;;;20.04;94.63
51261;BME280;61705;46.228;24.812;2023-07-20T05:07:04;96961.41;;;20.01;95.01
51261;BME280;61705;46.228;24.812;2023-07-20T05:09:31;96961.22;;;20.12;94.83
51261;BME280;61705;46.228;24.812;2023-07-20T05:11:57;96948.22;;;20.18;93.97
51261;BME280;61705;46.228;24.812;2023-07-20T05:14:24;96948.91;;;20.20;94.20
51261;BME280;61705;46.228;24.812;2023-07-20T05:16:51;96950.25;;;20.33;94.40
51261;BME280;61705;46.228;24.812;2023-07-20T05:19:17;96946.72;;;20.05;94.54
51261;BME280;61705;46.228;24.812;2023-07-20T05:21:44;96947.88;;;20.30;94.85
51261;BME280;61705;46.228;24.812;2023-07-20T05:24:11;96947.59;;;20.61;92.88
51261;BME280;61705;46.228;24.812;2023-07-20T05:26:37;96954.38;;;20.65;92.30
51261;BME280;61705;46.228;24.812;2023-07-20T05:29:04;96948.69;;;20.68;91.92
51261;BME280;61705;46.228;24.812;2023-07-20T05:31:31;96958.75;;;20.66;91.34
51261;BME280;61705;46.228;24.812;2023-07-20T05:33:58;96955.75;;;20.51;92.48
51261;BME280;61705;46.228;24.812;2023-07-20T05:36:24;96963.53;;;20.72;92.08
51261;BME280;61705;46.228;24.812;2023-07-20T05:38:52;96962.47;;;20.83;92.10
51261;BME280;61705;46.228;24.812;2023-07-20T05:41:21;96955.53;;;20.80;91.23
51261;BME280;61705;46.228;24.812;2023-07-20T05:43:49;96947.19;;;20.83;91.46
51261;BME280;61705;46.228;24.812;2023-07-20T05:46:17;96949.94;;;20.74;92.07
51261;BME280;61705;46.228;24.812;2023-07-20T05:48:43;96949.56;;;20.69;92.21
51261;BME280;61705;46.228;24.812;2023-07-20T05:51:10;96947.97;;;20.76;92.31
51261;BME280;61705;46.228;24.812;2023-07-20T05:53:36;96947.78;;;20.77;92.14
51261;BME280;61705;46.228;24.812;2023-07-20T05:56:04;96948.75;;;20.86;90.76
51261;BME280;61705;46.228;24.812;2023-07-20T05:58:31;96943.75;;;20.91;91.19
51261;BME280;61705;46.228;24.812;2023-07-20T06:01:00;96933.88;;;21.10;90.68
51261;BME280;61705;46.228;24.812;2023-07-20T06:03:28;96928.84;;;21.33;90.25
51261;BME280;61705;46.228;24.812;2023-07-20T06:06:01;96921.47;;;21.52;89.09
51261;BME280;61705;46.228;24.812;2023-07-20T06:08:28;96924.63;;;21.48;87.18
51261;BME280;61705;46.228;24.812;2023-07-20T06:10:55;96922.25;;;21.45;87.83
51261;BME280;61705;46.228;24.812;2023-07-20T06:13:22;96919.84;;;21.60;88.01
51261;BME280;61705;46.228;24.812;2023-07-20T06:15:49;96921.72;;;21.67;87.85
51261;BME280;61705;46.228;24.812;2023-07-20T06:18:16;96925.69;;;21.81;86.91
51261;BME280;61705;46.228;24.812;2023-07-20T06:20:44;96924.09;;;21.88;86.37
51261;BME280;61705;46.228;24.812;2023-07-20T06:23:14;96925.38;;;22.10;85.82
51261;BME280;61705;46.228;24.812;2023-07-20T06:25:41;96920.75;;;22.20;85.76
51261;BME280;61705;46.228;24.812;2023-07-20T06:28:08;96927.19;;;22.36;85.07
51261;BME280;61705;46.228;24.812;2023-07-20T06:30:35;96929.31;;;22.58;84.62
51261;BME280;61705;46.228;24.812;2023-07-20T06:33:01;96933.28;;;22.46;84.10
51261;BME280;61705;46.228;24.812;2023-07-20T06:35:28;96924.75;;;22.51;83.53
51261;BME280;61705;46.228;24.812;2023-07-20T06:37:55;96927.75;;;22.39;82.82
51261;BME280;61705;46.228;24.812;2023-07-20T06:40:21;96927.63;;;22.57;82.96
51261;BME280;61705;46.228;24.812;2023-07-20T06:42:51;96927.13;;;22.62;82.01
51261;BME280;61705;46.228;24.812;2023-07-20T06:45:21;96938.28;;;22.83;82.71
51261;BME280;61705;46.228;24.812;2023-07-20T06:47:47;96922.84;;;22.93;82.44
51261;BME280;61705;46.228;24.812;2023-07-20T06:50:14;96933.81;;;23.00;81.71
51261;BME280;61705;46.228;24.812;2023-07-20T06:52:43;96929.94;;;23.03;81.28
51261;BME280;61705;46.228;24.812;2023-07-20T06:55:10;96936.88;;;23.05;81.31
51261;BME280;61705;46.228;24.812;2023-07-20T06:57:37;96932.81;;;23.09;79.74
51261;BME280;61705;46.228;24.812;2023-07-20T07:00:04;96926.41;;;23.02;79.05
51261;BME280;61705;46.228;24.812;2023-07-20T07:02:32;96939.25;;;23.33;78.61
51261;BME280;61705;46.228;24.812;2023-07-20T07:05:01;96924.94;;;23.57;78.29
51261;BME280;61705;46.228;24.812;2023-07-20T07:07:44;96930.84;;;23.69;77.56
51261;BME280;61705;46.228;24.812;2023-07-20T07:10:10;96934.03;;;23.72;77.90
51261;BME280;61705;46.228;24.812;2023-07-20T07:12:37;96935.41;;;23.68;78.90
51261;BME280;61705;46.228;24.812;2023-07-20T07:15:04;96936.38;;;23.67;79.10
51261;BME280;61705;46.228;24.812;2023-07-20T07:17:32;96925.75;;;23.65;76.87
51261;BME280;61705;46.228;24.812;2023-07-20T07:20:00;96927.66;;;23.73;75.02
51261;BME280;61705;46.228;24.812;2023-07-20T07:22:26;96936.06;;;23.86;74.44
51261;BME280;61705;46.228;24.812;2023-07-20T07:24:53;96933.88;;;23.90;74.50
51261;BME280;61705;46.228;24.812;2023-07-20T07:27:20;96932.00;;;23.91;74.38
51261;BME280;61705;46.228;24.812;2023-07-20T07:29:50;96930.75;;;24.09;73.93
51261;BME280;61705;46.228;24.812;2023-07-20T07:32:17;96929.75;;;24.19;73.82
51261;BME280;61705;46.228;24.812;2023-07-20T07:34:43;96935.97;;;24.19;73.69
51261;BME280;61705;46.228;24.812;2023-07-20T07:37:16;96933.63;;;24.16;73.08
51261;BME280;61705;46.228;24.812;2023-07-20T07:39:46;96936.13;;;24.26;72.53
51261;BME280;61705;46.228;24.812;2023-07-20T07:42:13;96937.78;;;24.43;71.96
51261;BME280;61705;46.228;24.812;2023-07-20T07:44:40;96937.09;;;24.49;71.28
51261;BME280;61705;46.228;24.812;2023-07-20T07:47:06;96940.03;;;24.71;70.63
51261;BME280;61705;46.228;24.812;2023-07-20T07:49:33;96939.53;;;24.98;70.16
51261;BME280;61705;46.228;24.812;2023-07-20T07:52:00;96935.00;;;25.22;69.69
51261;BME280;61705;46.228;24.812;2023-07-20T07:54:28;96933.59;;;25.34;69.13
51261;BME280;61705;46.228;24.812;2023-07-20T07:56:56;96932.31;;;25.45;68.14
51261;BME280;61705;46.228;24.812;2023-07-20T07:59:22;96929.94;;;25.65;67.77
51261;BME280;61705;46.228;24.812;2023-07-20T08:01:49;96928.78;;;25.44;68.27
51261;BME280;61705;46.228;24.812;2023-07-20T08:04:15;96925.94;;;25.38;67.70
51261;BME280;61705;46.228;24.812;2023-07-20T08:06:42;96915.03;;;25.69;67.46
51261;BME280;61705;46.228;24.812;2023-07-20T08:09:09;96916.38;;;25.88;66.85
51261;BME280;61705;46.228;24.812;2023-07-20T08:11:35;96916.59;;;25.63;66.47
51261;BME280;61705;46.228;24.812;2023-07-20T08:14:02;96905.41;;;25.66;66.41
51261;BME280;61705;46.228;24.812;2023-07-20T08:16:31;96912.00;;;25.64;66.03
51261;BME280;61705;46.228;24.812;2023-07-20T08:18:59;96906.44;;;25.65;66.00
51261;BME280;61705;46.228;24.812;2023-07-20T08:21:26;96905.03;;;25.69;66.00
51261;BME280;61705;46.228;24.812;2023-07-20T08:23:52;96910.69;;;25.97;65.49
51261;BME280;61705;46.228;24.812;2023-07-20T08:26:19;96908.09;;;25.66;65.58
51261;BME280;61705;46.228;24.812;2023-07-20T08:28:49;96911.91;;;25.57;66.00
51261;BME280;61705;46.228;24.812;2023-07-20T08:31:16;96910.13;;;25.87;65.85
51261;BME280;61705;46.228;24.812;2023-07-20T08:33:43;96908.09;;;25.66;65.68
51261;BME280;61705;46.228;24.812;2023-07-20T08:36:10;96907.56;;;25.71;66.03
51261;BME280;61705;46.228;24.812;2023-07-20T08:38:37;96914.22;;;25.83;65.35
51261;BME280;61705;46.228;24.812;2023-07-20T08:41:04;96923.19;;;25.84;64.63
51261;BME280;61705;46.228;24.812;2023-07-20T08:43:31;96910.50;;;25.84;64.11
51261;BME280;61705;46.228;24.812;2023-07-20T08:45:57;96911.72;;;26.11;63.74
51261;BME280;61705;46.228;24.812;2023-07-20T08:48:24;96906.78;;;26.15;63.44
51261;BME280;61705;46.228;24.812;2023-07-20T08:50:52;96907.91;;;26.06;63.56
51261;BME280;61705;46.228;24.812;2023-07-20T08:53:22;96898.59;;;26.23;63.61
51261;BME280;61705;46.228;24.812;2023-07-20T08:58:13;96904.09;;;26.30;62.46
51261;BME280;61705;46.228;24.812;2023-07-20T09:00:42;96903.53;;;26.34;62.27
51261;BME280;61705;46.228;24.812;2023-07-20T09:03:12;96900.66;;;26.51;60.96
51261;BME280;61705;46.228;24.812;2023-07-20T09:05:41;96896.84;;;26.66;60.51
51261;BME280;61705;46.228;24.812;2023-07-20T09:08:10;96894.06;;;26.75;59.89
51261;BME280;61705;46.228;24.812;2023-07-20T09:10:37;96891.50;;;26.73;60.08
51261;BME280;61705;46.228;24.812;2023-07-20T09:13:04;96884.53;;;27.00;59.79
51261;BME280;61705;46.228;24.812;2023-07-20T09:15:32;96880.38;;;27.04;59.75
51261;BME280;61705;46.228;24.812;2023-07-20T09:18:01;96878.31;;;27.06;59.38
51261;BME280;61705;46.228;24.812;2023-07-20T09:20:27;96872.09;;;27.27;58.31
51261;BME280;61705;46.228;24.812;2023-07-20T09:22:57;96864.72;;;27.71;56.45
51261;BME280;61705;46.228;24.812;2023-07-20T09:25:23;96871.63;;;27.95;57.52
51261;BME280;61705;46.228;24.812;2023-07-20T09:27:54;96867.34;;;27.57;56.03
51261;BME280;61705;46.228;24.812;2023-07-20T09:30:24;96865.78;;;27.70;55.28
51261;BME280;61705;46.228;24.812;2023-07-20T09:32:57;96860.75;;;27.67;54.59
51261;BME280;61705;46.228;24.812;2023-07-20T09:35:25;96868.16;;;27.79;54.90
51261;BME280;61705;46.228;24.812;2023-07-20T09:38:07;96856.31;;;27.87;55.38
51261;BME280;61705;46.228;24.812;2023-07-20T09:40:50;96854.16;;;28.10;54.73
51261;BME280;61705;46.228;24.812;2023-07-20T09:43:20;96857.03;;;28.02;53.98
51261;BME280;61705;46.228;24.812;2023-07-20T09:45:49;96856.53;;;27.92;54.73
51261;BME280;61705;46.228;24.812;2023-07-20T09:48:19;96853.25;;;28.03;54.39
51261;BME280;61705;46.228;24.812;2023-07-20T09:50:53;96863.16;;;28.11;54.07
51261;BME280;61705;46.228;24.812;2023-07-20T09:55:36;96840.47;;;28.80;53.11
51261;BME280;61705;46.228;24.812;2023-07-20T09:58:03;96839.91;;;28.43;53.60
51261;BME280;61705;46.228;24.812;2023-07-20T10:00:34;96833.56;;;28.91;52.75
51261;BME280;61705;46.228;24.812;2023-07-20T10:03:05;96839.09;;;29.04;52.58
51261;BME280;61705;46.228;24.812;2023-07-20T10:05:35;96833.66;;;29.17;52.09
51261;BME280;61705;46.228;24.812;2023-07-20T10:08:04;96837.41;;;29.36;53.22
51261;BME280;61705;46.228;24.812;2023-07-20T10:10:36;96827.16;;;29.32;52.14
51261;BME280;61705;46.228;24.812;2023-07-20T10:13:04;96821.06;;;29.23;50.46
51261;BME280;61705;46.228;24.812;2023-07-20T10:15:43;96825.09;;;29.40;52.22
51261;BME280;61705;46.228;24.812;2023-07-20T10:20:45;96813.97;;;29.09;54.44
51261;BME280;61705;46.228;24.812;2023-07-20T10:23:22;96816.28;;;28.44;54.18
51261;BME280;61705;46.228;24.812;2023-07-20T10:25:52;96803.53;;;28.03;56.09
51261;BME280;61705;46.228;24.812;2023-07-20T10:28:19;96808.44;;;28.21;57.53
51261;BME280;61705;46.228;24.812;2023-07-20T10:30:46;96799.44;;;28.62;54.90
51261;BME280;61705;46.228;24.812;2023-07-20T10:33:13;96815.38;;;28.30;56.53
51261;BME280;61705;46.228;24.812;2023-07-20T10:36:01;96811.09;;;28.49;55.17
51261;BME280;61705;46.228;24.812;2023-07-20T10:38:38;96808.94;;;29.25;52.41
51261;BME280;61705;46.228;24.812;2023-07-20T10:41:08;96821.53;;;29.73;53.36
51261;BME280;61705;46.228;24.812;2023-07-20T10:43:45;96807.00;;;29.99;51.31
51261;BME280;61705;46.228;24.812;2023-07-20T10:46:12;96810.38;;;29.88;51.16
51261;BME280;61705;46.228;24.812;2023-07-20T10:51:28;96809.72;;;30.06;50.94
51261;BME280;61705;46.228;24.812;2023-07-20T10:54:01;96795.88;;;30.59;50.21
51261;BME280;61705;46.228;24.812;2023-07-20T10:56:28;96799.59;;;31.09;49.29
51261;BME280;61705;46.228;24.812;2023-07-20T10:58:59;96800.75;;;30.95;48.29
51261;BME280;61705;46.228;24.812;2023-07-20T11:01:36;96782.66;;;31.26;47.12
51261;BME280;61705;46.228;24.812;2023-07-20T11:04:08;96791.00;;;31.31;46.94
51261;BME280;61705;46.228;24.812;2023-07-20T11:06:35;96785.56;;;31.31;44.42
51261;BME280;61705;46.228;24.812;2023-07-20T11:09:08;96799.13;;;31.44;45.26
51261;BME280;61705;46.228;24.812;2023-07-20T11:11:38;96811.00;;;31.25;46.85
51261;BME280;61705;46.228;24.812;2023-07-20T11:14:07;96821.31;;;30.98;48.40
51261;BME280;61705;46.228;24.812;2023-07-20T11:16:35;96817.47;;;31.05;47.33
51261;BME280;61705;46.228;24.812;2023-07-20T11:19:23;96807.00;;;31.27;46.94
51261;BME280;61705;46.228;24.812;2023-07-20T11:21:57;96813.53;;;31.01;47.03
51261;BME280;61705;46.228;24.812;2023-07-20T11:24:27;96830.22;;;30.80;48.07
51261;BME280;61705;46.228;24.812;2023-07-20T11:26:54;96824.78;;;30.21;49.75
51261;BME280;61705;46.228;24.812;2023-07-20T11:29:24;96818.97;;;29.91;50.51
51261;BME280;61705;46.228;24.812;2023-07-20T11:32:00;96811.03;;;29.50;50.46
51261;BME280;61705;46.228;24.812;2023-07-20T11:34:32;96811.25;;;29.35;51.43
51261;BME280;61705;46.228;24.812;2023-07-20T11:37:00;96814.78;;;29.09;52.25
51261;BME280;61705;46.228;24.812;2023-07-20T11:39:30;96817.84;;;28.18;54.56
51261;BME280;61705;46.228;24.812;2023-07-20T11:42:00;96824.25;;;27.48;55.64
51261;BME280;61705;46.228;24.812;2023-07-20T11:44:29;96866.06;;;27.10;56.62
51261;BME280;61705;46.228;24.812;2023-07-20T11:47:10;96928.78;;;25.21;61.68
51261;BME280;61705;46.228;24.812;2023-07-20T11:49:43;96979.22;;;21.66;88.17
51261;BME280;61705;46.228;24.812;2023-07-20T11:52:11;97029.78;;;21.45;89.29
51261;BME280;61705;46.228;24.812;2023-07-20T11:54:38;97033.09;;;20.66;90.99
51261;BME280;61705;46.228;24.812;2023-07-20T11:57:06;97023.63;;;20.15;91.36
51261;BME280;61705;46.228;24.812;2023-07-20T11:59:35;97022.97;;;19.54;92.75
51261;BME280;61705;46.228;24.812;2023-07-20T12:02:02;97020.28;;;19.35;96.48
51261;BME280;61705;46.228;24.812;2023-07-20T12:04:33;97001.00;;;19.80;97.92
51261;BME280;61705;46.228;24.812;2023-07-20T12:06:59;96995.75;;;20.35;100.00
51261;BME280;61705;46.228;24.812;2023-07-20T12:09:26;96988.03;;;20.50;99.68
51261;BME280;61705;46.228;24.812;2023-07-20T12:12:13;96976.44;;;20.87;100.00
51261;BME280;61705;46.228;24.812;2023-07-20T12:14:40;96962.94;;;21.14;100.00
51261;BME280;61705;46.228;24.812;2023-07-20T12:17:08;96960.41;;;21.66;100.00
51261;BME280;61705;46.228;24.812;2023-07-20T12:19:39;96945.00;;;22.29;98.59
51261;BME280;61705;46.228;24.812;2023-07-20T12:22:06;96940.66;;;22.78;96.70
51261;BME280;61705;46.228;24.812;2023-07-20T12:24:34;96952.53;;;23.10;95.53
51261;BME280;61705;46.228;24.812;2023-07-20T12:27:01;96962.34;;;23.60;94.62
51261;BME280;61705;46.228;24.812;2023-07-20T12:29:28;96951.06;;;23.81;92.54
51261;BME280;61705;46.228;24.812;2023-07-20T12:31:54;96945.34;;;23.76;87.99
51261;BME280;61705;46.228;24.812;2023-07-20T12:34:21;96946.97;;;24.18;88.65
51261;BME280;61705;46.228;24.812;2023-07-20T12:36:48;96937.44;;;24.30;88.25
51261;BME280;61705;46.228;24.812;2023-07-20T12:39:14;96925.84;;;24.21;87.62
51261;BME280;61705;46.228;24.812;2023-07-20T12:41:41;96925.81;;;24.29;85.52
51261;BME280;61705;46.228;24.812;2023-07-20T12:44:08;96921.78;;;24.25;85.69
51261;BME280;61705;46.228;24.812;2023-07-20T12:46:34;96927.56;;;24.06;85.76
51261;BME280;61705;46.228;24.812;2023-07-20T12:49:03;96927.56;;;24.14;85.83
51261;BME280;61705;46.228;24.812;2023-07-20T12:51:33;96916.63;;;23.99;83.58
51261;BME280;61705;46.228;24.812;2023-07-20T12:54:02;96914.88;;;24.23;84.49
51261;BME280;61705;46.228;24.812;2023-07-20T12:56:29;96902.25;;;24.15;81.17
51261;BME280;61705;46.228;24.812;2023-07-20T12:58:58;96895.22;;;23.89;84.59
51261;BME280;61705;46.228;24.812;2023-07-20T13:01:25;96905.69;;;23.84;85.81
51261;BME280;61705;46.228;24.812;2023-07-20T13:04:01;96909.59;;;23.74;86.54
51261;BME280;61705;46.228;24.812;2023-07-20T13:06:33;96907.91;;;23.81;87.47
51261;BME280;61705;46.228;24.812;2023-07-20T13:09:02;96916.31;;;23.86;83.26
51261;BME280;61705;46.228;24.812;2023-07-20T13:11:33;96910.22;;;24.00;79.81